createdAt,value
2022-07-29T00:00:31.776Z,99787.37
2022-07-29T00:04:47.833Z,99786.09
2022-07-29T00:09:04.013Z,99790.78
2022-07-29T00:13:32.070Z,99786.22
2022-07-29T00:17:49.042Z,99783.69
2022-07-29T00:22:05.106Z,99778.16
2022-07-29T00:26:21.086Z,99776.84
2022-07-29T00:30:37.138Z,99775.31
2022-07-29T00:35:12.109Z,99783.75
2022-07-29T00:39:28.231Z,99782.75
2022-07-29T00:43:45.284Z,99789.31
2022-07-29T00:48:01.681Z,99780.37
2022-07-29T00:52:17.732Z,99783.16
2022-07-29T00:56:34.664Z,99774.19
2022-07-29T01:00:50.894Z,99778.81
2022-07-29T01:05:08.013Z,99770.59
2022-07-29T01:09:35.059Z,99764.09
2022-07-29T01:14:01.510Z,99760.34
2022-07-29T01:18:29.032Z,99760.00
2022-07-29T01:22:51.950Z,99757.87
2022-07-29T01:27:25.189Z,99767.78
2022-07-29T01:31:58.696Z,99769.44
2022-07-29T01:36:24.716Z,99763.59
2022-07-29T01:40:48.967Z,99769.22
2022-07-29T01:45:27.353Z,99768.12
2022-07-29T01:49:47.922Z,99762.72
2022-07-29T01:54:15.676Z,99758.94
2022-07-29T01:58:33.968Z,99753.03
2022-07-29T02:02:51.658Z,99758.50
2022-07-29T02:07:11.444Z,99754.47
2022-07-29T02:11:27.677Z,99756.44
2022-07-29T02:15:44.740Z,99759.63
2022-07-29T02:20:04.059Z,99760.31
2022-07-29T02:24:20.212Z,99753.16
2022-07-29T02:28:36.455Z,99748.06
2022-07-29T02:32:52.840Z,99745.81
2022-07-29T02:37:11.220Z,99755.56
2022-07-29T02:41:43.423Z,99751.78
2022-07-29T02:46:00.566Z,99753.03
2022-07-29T02:50:33.700Z,99747.09
2022-07-29T02:54:59.921Z,99749.13
2022-07-29T02:59:19.296Z,99742.53
2022-07-29T03:03:38.395Z,99749.03
2022-07-29T03:08:05.387Z,99756.22
2022-07-29T03:12:21.780Z,99758.44
2022-07-29T03:16:41.257Z,99753.59
2022-07-29T03:20:57.661Z,99749.28
2022-07-29T03:25:15.256Z,99751.53
2022-07-29T03:29:33.104Z,99749.75
2022-07-29T03:33:50.193Z,99749.94
2022-07-29T03:38:06.339Z,99743.66
2022-07-29T03:42:25.469Z,99752.56
2022-07-29T03:46:43.161Z,99751.44
2022-07-29T03:50:59.343Z,99755.94
2022-07-29T03:55:16.202Z,99752.72
2022-07-29T03:59:34.940Z,99761.84
2022-07-29T04:03:51.215Z,99759.72
2022-07-29T04:08:07.727Z,99761.50
2022-07-29T04:12:23.766Z,99760.97
2022-07-29T04:16:39.872Z,99760.25
2022-07-29T04:20:55.977Z,99771.56
2022-07-29T04:25:12.165Z,99761.84
2022-07-29T04:29:28.291Z,99760.28
2022-07-29T04:33:44.342Z,99762.00
2022-07-29T04:38:00.415Z,99769.38
2022-07-29T04:42:16.387Z,99764.44
2022-07-29T04:46:33.896Z,99759.84
2022-07-29T04:50:50.052Z,99756.06
2022-07-29T04:55:07.150Z,99762.41
2022-07-29T04:59:23.680Z,99759.94
2022-07-29T05:03:39.661Z,99769.22
2022-07-29T05:07:56.333Z,99773.91
2022-07-29T05:12:13.035Z,99777.41
2022-07-29T05:16:29.080Z,99774.94
2022-07-29T05:20:45.271Z,99768.84
2022-07-29T05:25:05.574Z,99765.63
2022-07-29T05:29:44.795Z,99773.44
2022-07-29T05:34:01.675Z,99761.31
2022-07-29T05:38:17.825Z,99759.47
2022-07-29T05:42:34.047Z,99757.94
2022-07-29T05:46:50.174Z,99757.16
2022-07-29T05:51:06.253Z,99763.84
2022-07-29T05:55:22.216Z,99767.78
2022-07-29T05:59:38.790Z,99765.06
2022-07-29T06:03:55.124Z,99758.69
2022-07-29T06:08:11.136Z,99759.56
2022-07-29T06:12:27.530Z,99761.78
2022-07-29T06:16:43.866Z,99757.59
2022-07-29T06:21:00.016Z,99754.09
2022-07-29T06:25:16.166Z,99758.59
2022-07-29T06:29:32.263Z,99762.50
2022-07-29T06:33:48.316Z,99756.50
2022-07-29T06:38:06.339Z,99759.84
2022-07-29T06:42:44.943Z,99763.44
2022-07-29T06:47:01.573Z,99758.00
2022-07-29T06:51:22.444Z,99759.66
2022-07-29T06:55:39.505Z,99758.81
2022-07-29T06:59:57.608Z,99763.72
2022-07-29T07:04:14.971Z,99765.25
2022-07-29T07:08:31.371Z,99757.25
2022-07-29T07:12:47.352Z,99762.19
2022-07-29T07:17:05.202Z,99756.56
2022-07-29T07:21:21.221Z,99750.91
2022-07-29T07:25:37.673Z,99746.91
2022-07-29T07:29:55.029Z,99758.19
2022-07-29T07:34:11.028Z,99746.12
2022-07-29T07:38:27.059Z,99736.88
2022-07-29T07:42:43.116Z,99738.75
2022-07-29T07:47:03.983Z,99741.97
2022-07-29T07:51:28.252Z,99740.25
2022-07-29T07:56:09.526Z,99734.66
2022-07-29T08:00:21.587Z,99731.44
2022-07-29T08:04:41.532Z,99733.75
2022-07-29T08:09:19.469Z,99730.16
2022-07-29T08:13:34.010Z,99728.41
2022-07-29T08:17:50.113Z,99723.28
2022-07-29T08:22:06.258Z,99729.88
2022-07-29T08:26:23.709Z,99722.09
2022-07-29T08:30:39.760Z,99720.13
2022-07-29T08:34:55.784Z,99731.84
2022-07-29T08:39:11.915Z,99721.84
2022-07-29T08:43:30.199Z,99714.66
2022-07-29T08:47:47.337Z,99723.69
2022-07-29T08:52:03.790Z,99719.28
2022-07-29T08:56:20.599Z,99718.16
2022-07-29T09:00:38.437Z,99717.41
2022-07-29T09:04:54.642Z,99716.41
2022-07-29T09:09:10.763Z,99706.19
2022-07-29T09:13:27.037Z,99712.94
2022-07-29T09:17:47.880Z,99715.41
2022-07-29T09:22:06.358Z,99701.16
2022-07-29T09:26:28.764Z,99711.06
2022-07-29T09:30:56.604Z,99699.62
2022-07-29T09:35:20.443Z,99699.94
2022-07-29T09:39:49.655Z,99686.75
2022-07-29T09:44:07.092Z,99684.25
2022-07-29T09:48:26.201Z,99678.69
2022-07-29T09:52:51.260Z,99676.66
2022-07-29T09:57:10.747Z,99678.63
2022-07-29T10:01:30.288Z,99664.22
2022-07-29T10:05:47.291Z,99663.50
2022-07-29T10:10:03.445Z,99658.91
2022-07-29T10:14:19.818Z,99662.62
2022-07-29T10:18:36.404Z,99659.94
2022-07-29T10:22:54.291Z,99656.84
2022-07-29T10:27:11.118Z,99651.97
2022-07-29T10:31:43.229Z,99657.69
2022-07-29T10:36:21.133Z,99652.59
2022-07-29T10:41:06.660Z,99640.53
2022-07-29T10:45:25.050Z,99640.31
2022-07-29T10:49:56.399Z,99637.13
2022-07-29T10:54:12.670Z,99635.06
2022-07-29T10:58:28.673Z,99622.19
2022-07-29T11:02:53.307Z,99618.53
2022-07-29T11:07:11.713Z,99628.44
2022-07-29T11:11:29.748Z,99620.13
2022-07-29T11:15:59.075Z,99615.09
2022-07-29T11:20:44.280Z,99603.41
2022-07-29T11:29:58.834Z,99604.03
2022-07-29T11:34:28.174Z,99600.72
2022-07-29T11:38:45.848Z,99580.38
2022-07-29T11:43:03.127Z,99579.88
2022-07-29T11:47:24.364Z,99582.41
2022-07-29T11:51:48.121Z,99567.09
2022-07-29T11:56:05.132Z,99565.63
2022-07-29T12:00:41.778Z,99566.56
2022-07-29T12:04:59.596Z,99558.03
2022-07-29T12:09:15.759Z,99557.97
2022-07-29T12:13:39.844Z,99562.47
2022-07-29T12:17:55.955Z,99555.50
2022-07-29T12:22:12.316Z,99557.09
2022-07-29T12:26:28.382Z,99548.75
2022-07-29T12:30:52.183Z,99545.84
2022-07-29T12:35:12.370Z,99539.09
2022-07-29T12:39:29.195Z,99530.72
2022-07-29T12:43:58.248Z,99525.47
2022-07-29T12:48:15.023Z,99520.00
2022-07-29T12:52:35.831Z,99519.09
2022-07-29T12:57:00.765Z,99507.84
2022-07-29T13:01:19.261Z,99501.84
2022-07-29T13:05:47.164Z,99505.50
2022-07-29T13:10:23.853Z,99492.28
2022-07-29T13:14:43.408Z,99488.59
2022-07-29T13:19:10.416Z,99485.69
2022-07-29T13:23:26.433Z,99485.25
2022-07-29T13:27:42.506Z,99481.75
2022-07-29T13:31:58.711Z,99482.66
2022-07-29T13:36:17.245Z,99475.19
2022-07-29T13:40:36.388Z,99480.03
2022-07-29T13:44:52.836Z,99466.72
2022-07-29T13:49:08.892Z,99471.59
2022-07-29T13:53:26.973Z,99469.31
2022-07-29T13:57:43.365Z,99472.88
2022-07-29T14:01:59.773Z,99468.22
2022-07-29T14:06:16.239Z,99475.75
2022-07-29T14:10:34.316Z,99466.94
2022-07-29T14:14:50.485Z,99458.53
2022-07-29T14:19:06.487Z,99460.84
2022-07-29T14:23:23.603Z,99451.41
2022-07-29T14:27:39.714Z,99452.56
2022-07-29T14:31:58.254Z,99449.50
2022-07-29T14:36:14.384Z,99449.81
2022-07-29T14:40:30.581Z,99445.03
2022-07-29T14:44:47.017Z,99440.59
2022-07-29T14:49:03.100Z,99434.97
2022-07-29T14:53:19.169Z,99421.81
2022-07-29T14:57:35.157Z,99419.56
2022-07-29T15:01:52.076Z,99413.03
2022-07-29T15:06:08.276Z,99398.03
2022-07-29T15:10:24.893Z,99402.31
2022-07-29T15:14:40.958Z,99403.47
2022-07-29T15:19:01.264Z,99402.47
2022-07-29T15:23:17.532Z,99387.59
2022-07-29T15:27:33.503Z,99390.78
2022-07-29T15:31:49.660Z,99383.91
2022-07-29T15:36:06.313Z,99382.56
2022-07-29T15:40:22.747Z,99380.47
2022-07-29T15:44:38.771Z,99364.31
2022-07-29T15:48:54.827Z,99363.22
2022-07-29T15:53:11.013Z,99365.97
2022-07-29T15:57:27.172Z,99368.75
2022-07-29T16:01:43.240Z,99362.28
2022-07-29T16:05:59.865Z,99366.50
2022-07-29T16:10:16.017Z,99368.72
2022-07-29T16:14:32.045Z,99369.53
2022-07-29T16:18:48.334Z,99367.69
2022-07-29T16:23:05.586Z,99374.72
2022-07-29T16:27:37.699Z,99368.03
2022-07-29T16:31:54.538Z,99365.41
2022-07-29T16:36:10.783Z,99375.16
2022-07-29T16:40:29.413Z,99372.16
2022-07-29T16:44:45.498Z,99374.66
2022-07-29T16:49:02.102Z,99360.97
2022-07-29T16:53:18.441Z,99364.53
2022-07-29T16:57:34.482Z,99364.41
2022-07-29T17:01:51.329Z,99367.50
2022-07-29T17:06:07.454Z,99365.56
2022-07-29T17:10:23.779Z,99377.03
2022-07-29T17:14:39.814Z,99374.19
2022-07-29T17:18:57.792Z,99376.87
2022-07-29T17:23:13.905Z,99387.16
2022-07-29T17:27:30.207Z,99394.06
2022-07-29T17:31:46.347Z,99400.56
2022-07-29T17:36:21.138Z,99406.75
2022-07-29T17:40:37.174Z,99425.94
2022-07-29T17:44:53.326Z,99449.41
2022-07-29T17:49:09.426Z,99461.59
2022-07-29T17:53:25.476Z,99465.50
2022-07-29T17:57:41.586Z,99485.25
2022-07-29T18:01:57.628Z,99474.91
2022-07-29T18:06:13.831Z,99477.44
2022-07-29T18:10:30.422Z,99475.16
2022-07-29T18:14:46.483Z,99484.75
2022-07-29T18:19:02.607Z,99489.47
2022-07-29T18:23:18.727Z,99491.75
2022-07-29T18:27:34.785Z,99495.03
2022-07-29T18:31:50.874Z,99501.34
2022-07-29T18:36:11.619Z,99503.09
2022-07-29T18:40:28.368Z,99503.28
2022-07-29T18:44:49.209Z,99496.63
2022-07-29T18:49:05.521Z,99498.13
2022-07-29T18:53:21.810Z,99498.50
2022-07-29T18:57:54.271Z,99508.63
2022-07-29T19:02:12.602Z,99499.97
2022-07-29T19:06:28.805Z,99504.81
2022-07-29T19:10:45.345Z,99504.66
2022-07-29T19:15:01.712Z,99505.44
2022-07-29T19:19:17.718Z,99508.44
2022-07-29T19:24:01.920Z,99516.22
2022-07-29T19:28:10.760Z,99514.78
2022-07-29T19:32:26.743Z,99520.19
2022-07-29T19:36:42.875Z,99514.50
2022-07-29T19:40:59.040Z,99516.06
2022-07-29T19:45:15.109Z,99520.34
2022-07-29T19:49:31.384Z,99518.28
2022-07-29T19:53:49.970Z,99530.94
2022-07-29T19:58:06.833Z,99528.66
2022-07-29T20:02:24.740Z,99533.63
2022-07-29T20:06:43.338Z,99526.88
2022-07-29T20:10:59.344Z,99517.06
2022-07-29T20:15:16.563Z,99515.78
2022-07-29T20:19:34.138Z,99518.22
2022-07-29T20:23:50.170Z,99513.03
2022-07-29T20:28:06.223Z,99519.44
2022-07-29T20:32:22.289Z,99521.25
2022-07-29T20:36:38.345Z,99521.37
2022-07-29T20:40:58.581Z,99535.63
2022-07-29T20:45:14.544Z,99539.06
2022-07-29T20:49:31.083Z,99541.25
2022-07-29T20:53:47.727Z,99542.69
2022-07-29T20:58:03.794Z,99546.06
2022-07-29T21:02:19.901Z,99557.25
2022-07-29T21:06:35.973Z,99558.66
2022-07-29T21:10:52.898Z,99563.81
2022-07-29T21:15:13.269Z,99552.91
2022-07-29T21:19:29.199Z,99559.59
2022-07-29T21:23:46.100Z,99557.69
2022-07-29T21:28:20.815Z,99560.84
2022-07-29T21:32:36.976Z,99561.78
2022-07-29T21:36:52.996Z,99565.28
2022-07-29T21:41:10.900Z,99573.56
2022-07-29T21:45:26.890Z,99566.91
2022-07-29T21:49:42.911Z,99576.81
2022-07-29T21:53:59.003Z,99586.28
2022-07-29T21:58:17.985Z,99581.84
2022-07-29T22:02:34.059Z,99588.31
2022-07-29T22:06:50.153Z,99584.59
2022-07-29T22:11:06.183Z,99581.19
2022-07-29T22:15:22.671Z,99583.13
2022-07-29T22:19:39.752Z,99586.41
2022-07-29T22:23:55.782Z,99585.78
2022-07-29T22:28:11.899Z,99579.09
2022-07-29T22:32:27.909Z,99585.34
2022-07-29T22:36:43.997Z,99575.19
2022-07-29T22:41:01.402Z,99575.09
2022-07-29T22:45:17.801Z,99559.69
2022-07-29T22:49:33.795Z,99545.72
2022-07-29T22:53:49.869Z,99542.13
2022-07-29T22:58:05.928Z,99540.44
2022-07-29T23:02:21.999Z,99542.81
2022-07-29T23:06:38.060Z,99536.69
2022-07-29T23:10:54.056Z,99542.03
2022-07-29T23:15:10.179Z,99533.53
2022-07-29T23:19:26.281Z,99524.91
2022-07-29T23:23:45.733Z,99523.38
2022-07-29T23:28:01.900Z,99524.59
2022-07-29T23:32:17.931Z,99519.69
2022-07-29T23:36:33.896Z,99505.72
2022-07-29T23:40:51.144Z,99502.16
2022-07-29T23:45:08.054Z,99501.38
2022-07-29T23:49:24.072Z,99508.25
2022-07-29T23:53:53.012Z,99501.19
2022-07-29T23:58:10.642Z,99500.88
